Time;durP1;ratioP1;P1;durP2;ratioP2;P2;SDS_P1;SDS_P2;PMS_P1;PMS_P2;Temp;Humidity;BMP_temperature;BMP_pressure;BME280_temperature;BME280_humidity;BME280_pressure;Samples;Min_cycle;Max_cycle;Signal;HPM_P1;HPM_P2
2023/09/10 00:01:25;;;;;;;;;;;;;;;29.66;41.67;94458.88;4990522;28;7162;-61
2023/09/10 00:03:53;;;;;;;;;;;;;;;29.67;42.63;94473.44;4990295;28;7466;-61
2023/09/10 00:06:19;;;;;;;;;;;;;;;29.67;42.13;94468.66;4992699;28;7879;-61
2023/09/10 00:08:45;;;;;;;;;;;;;;;29.68;42.59;94466.63;5007775;28;8880;-61
2023/09/10 00:11:16;;;;;;;;;;;;;;;29.67;41.83;94465.13;5025267;28;7258;-60
2023/09/10 00:13:44;;;;;;;;;;;;;;;29.67;41.51;94473.44;5009425;28;9270;-61
2023/09/10 00:16:17;;;;;;;;;;;;;;;29.66;42.03;94475.50;5008154;28;9067;-60
2023/09/10 00:18:45;;;;;;;;;;;;;;;29.67;42.71;94476.22;5010060;28;7126;-61
2023/09/10 00:21:13;;;;;;;;;;;;;;;29.65;41.75;94470.47;4996512;28;7447;-61
2023/09/10 00:23:44;;;;;;;;;;;;;;;29.64;41.77;94469.75;5018839;28;7272;-61
2023/09/10 00:26:10;;;;;;;;;;;;;;;29.64;41.82;94474.53;5003794;28;6979;-60
2023/09/10 00:28:37;;;;;;;;;;;;;;;29.64;42.62;94480.09;5000494;28;7302;-61
2023/09/10 00:31:07;;;;;;;;;;;;;;;29.64;41.44;94464.19;5022053;28;7127;-61
2023/09/10 00:33:33;;;;;;;;;;;;;;;29.63;41.46;94473.78;5009236;28;7168;-61
2023/09/10 00:36:09;;;;;;;;;;;;;;;29.63;41.80;94473.78;5005049;28;7148;-62
2023/09/10 00:38:54;;;;;;;;;;;;;;;29.62;42.57;94482.66;5023265;28;7087;-62
2023/09/10 00:41:39;;;;;;;;;;;;;;;29.61;41.73;94481.16;5007264;28;7259;-62
2023/09/10 00:44:09;;;;;;;;;;;;;;;29.59;42.20;94490.00;5025945;28;8935;-62
2023/09/10 00:46:42;;;;;;;;;;;;;;;29.59;41.59;94489.25;5020956;28;8505;-62
2023/09/10 00:49:13;;;;;;;;;;;;;;;29.57;41.39;94486.28;5011137;28;8838;-62
2023/09/10 00:51:47;;;;;;;;;;;;;;;29.57;42.26;94486.28;5013518;28;7437;-62
2023/09/10 00:54:17;;;;;;;;;;;;;;;29.59;41.98;94494.78;5018611;28;8808;-62
2023/09/10 00:56:44;;;;;;;;;;;;;;;29.58;42.58;94488.50;5028542;28;6987;-62
2023/09/10 00:59:15;;;;;;;;;;;;;;;29.58;41.67;94488.50;5007947;28;7234;-63
2023/09/10 01:01:41;;;;;;;;;;;;;;;29.58;42.10;94496.81;5004381;28;7002;-62
2023/09/10 01:04:07;;;;;;;;;;;;;;;29.59;42.29;94492.03;5024242;28;8831;-63
2023/09/10 01:06:35;;;;;;;;;;;;;;;29.56;41.76;94485.53;5009304;28;7603;-62
2023/09/10 01:09:04;;;;;;;;;;;;;;;29.57;41.63;94489.03;5006180;28;8990;-62
2023/09/10 01:11:42;;;;;;;;;;;;;;;29.57;42.13;94483.50;5023548;28;8779;-62
2023/09/10 01:14:55;;;;;;;;;;;;;;;29.56;42.02;94484.75;5006725;28;8726;-62
2023/09/10 01:21:23;;;;;;;;;;;;;;;29.55;41.92;94486.06;4980600;28;8255;-63
2023/09/10 01:24:38;;;;;;;;;;;;;;;29.55;41.31;94483.28;4939243;28;7396;-62
2023/09/10 01:27:18;;;;;;;;;;;;;;;29.50;42.31;94482.13;4966137;28;7250;-62
2023/09/10 01:29:45;;;;;;;;;;;;;;;29.52;41.40;94479.56;4950652;28;7246;-63
2023/09/10 01:32:55;;;;;;;;;;;;;;;29.51;41.85;94488.41;4947078;28;8946;-62
2023/09/10 01:36:08;;;;;;;;;;;;;;;29.49;41.10;94483.38;4953334;28;7210;-62
2023/09/10 01:38:56;;;;;;;;;;;;;;;29.49;41.97;94486.16;4949955;28;7021;-62
2023/09/10 01:41:34;;;;;;;;;;;;;;;29.48;42.17;94484.69;4957473;28;7031;-62
2023/09/10 01:44:06;;;;;;;;;;;;;;;29.49;42.07;94488.22;4949395;28;7259;-62
2023/09/10 01:47:04;;;;;;;;;;;;;;;29.49;42.11;94488.22;4936015;28;7317;-57
2023/09/10 01:49:37;;;;;;;;;;;;;;;29.47;42.33;94490.78;4911210;29;7195;-57
2023/09/10 01:52:22;;;;;;;;;;;;;;;29.48;42.31;94487.47;4896498;29;7242;-57
2023/09/10 01:54:58;;;;;;;;;;;;;;;29.49;41.63;94486.16;4931833;28;9156;-57
2023/09/10 01:57:24;;;;;;;;;;;;;;;29.51;41.91;94485.66;4927466;28;7213;-57
2023/09/10 01:59:51;;;;;;;;;;;;;;;29.51;40.81;94491.19;4916380;29;8214;-57
2023/09/10 02:02:18;;;;;;;;;;;;;;;29.45;41.61;94490.56;4893969;29;7309;-57
2023/09/10 02:05:03;;;;;;;;;;;;;;;29.47;42.07;94485.22;4926547;29;7321;-57
2023/09/10 02:08:19;;;;;;;;;;;;;;;29.50;41.08;94493.22;4893706;29;9048;-57
2023/09/10 02:10:46;;;;;;;;;;;;;;;29.50;41.57;94486.91;4898469;29;8754;-57
2023/09/10 02:13:11;;;;;;;;;;;;;;;29.50;41.53;94481.38;4902558;29;7417;-57
2023/09/10 02:15:47;;;;;;;;;;;;;;;29.49;41.09;94480.63;4921440;29;7178;-57
2023/09/10 02:18:32;;;;;;;;;;;;;;;29.47;41.48;94476.91;4919474;29;8047;-57
2023/09/10 02:21:18;;;;;;;;;;;;;;;29.46;41.48;94480.94;4916587;29;8166;-57
2023/09/10 02:24:29;;;;;;;;;;;;;;;29.45;41.91;94482.97;4899513;29;7014;-57
2023/09/10 02:27:04;;;;;;;;;;;;;;;29.45;41.63;94479.47;4983148;28;7933;-57
2023/09/10 02:29:40;;;;;;;;;;;;;;;29.45;41.37;94480.19;4985138;28;9343;-57
2023/09/10 02:32:37;;;;;;;;;;;;;;;29.45;41.50;94482.25;4974489;28;7257;-57
2023/09/10 02:35:12;;;;;;;;;;;;;;;29.42;41.53;94480.53;4951112;28;9159;-56
2023/09/10 02:37:38;;;;;;;;;;;;;;;29.43;41.35;94488.31;4936466;28;7270;-57
2023/09/10 02:40:20;;;;;;;;;;;;;;;29.42;41.76;94484.06;4934911;28;9074;-57
2023/09/10 02:43:01;;;;;;;;;;;;;;;29.45;41.53;94482.25;4952944;28;6991;-57
2023/09/10 02:45:41;;;;;;;;;;;;;;;29.43;41.65;94479.25;4936187;28;7083;-57
2023/09/10 02:48:08;;;;;;;;;;;;;;;29.43;41.28;94480.00;4935016;28;7187;-57
2023/09/10 02:50:34;;;;;;;;;;;;;;;29.43;41.14;94480.00;4932867;28;7238;-57
2023/09/10 02:53:00;;;;;;;;;;;;;;;29.44;41.17;94495.34;4947587;28;7572;-57
2023/09/10 02:55:29;;;;;;;;;;;;;;;29.44;40.84;94489.06;4934577;28;7289;-65
2023/09/10 02:57:57;;;;;;;;;;;;;;;29.44;40.96;94495.34;4916827;28;7117;-65
2023/09/10 03:00:25;;;;;;;;;;;;;;;29.41;41.18;94490.88;4927014;28;7291;-65
2023/09/10 03:03:00;;;;;;;;;;;;;;;29.44;41.45;94491.81;4947817;28;7072;-65
2023/09/10 03:05:35;;;;;;;;;;;;;;;29.40;40.67;94483.84;4949561;28;9151;-65
2023/09/10 03:08:03;;;;;;;;;;;;;;;29.39;41.11;94490.66;4951362;28;7018;-66
2023/09/10 03:10:42;;;;;;;;;;;;;;;29.43;41.44;94482.00;4939420;28;6856;-65
2023/09/10 03:13:30;;;;;;;;;;;;;;;29.41;41.06;94490.13;5030257;28;7304;-65
2023/09/10 03:15:57;;;;;;;;;;;;;;;29.42;41.70;94489.59;5032929;28;9075;-65
2023/09/10 03:18:23;;;;;;;;;;;;;;;29.41;41.33;94488.09;5012161;28;8855;-65
2023/09/10 03:20:49;;;;;;;;;;;;;;;29.38;40.64;94486.41;5027997;28;7431;-65
2023/09/10 03:23:22;;;;;;;;;;;;;;;29.41;40.69;94490.13;5026793;28;7235;-66
2023/09/10 03:25:57;;;;;;;;;;;;;;;29.41;40.15;94493.63;5010798;28;7687;-65
2023/09/10 03:28:25;;;;;;;;;;;;;;;29.38;41.21;94486.41;5013572;28;8949;-65
2023/09/10 03:31:01;;;;;;;;;;;;;;;29.37;40.41;94489.69;5028204;28;7524;-65
2023/09/10 03:33:43;;;;;;;;;;;;;;;29.36;41.21;94494.47;5017506;28;7042;-65
2023/09/10 03:36:09;;;;;;;;;;;;;;;29.37;40.93;94501.53;5008898;28;7095;-65
2023/09/10 03:38:51;;;;;;;;;;;;;;;29.36;41.27;94485.44;5011760;28;7567;-66
2023/09/10 03:41:20;;;;;;;;;;;;;;;29.35;40.90;94489.47;5021425;28;7238;-65
2023/09/10 03:43:58;;;;;;;;;;;;;;;29.36;40.52;94488.22;5004614;28;7147;-65
2023/09/10 03:46:28;;;;;;;;;;;;;;;29.35;40.98;94481.94;5006454;28;7313;-65
2023/09/10 03:48:56;;;;;;;;;;;;;;;29.35;40.56;94481.16;5009401;28;7285;-65
2023/09/10 03:51:32;;;;;;;;;;;;;;;29.34;40.34;94479.69;5011488;28;6909;-65
2023/09/10 03:54:24;;;;;;;;;;;;;;;29.36;41.24;94485.44;5012250;28;6977;-65
2023/09/10 03:56:59;;;;;;;;;;;;;;;29.35;40.25;94484.69;5024274;28;7206;-65
2023/09/10 03:59:26;;;;;;;;;;;;;;;29.36;41.38;94482.69;5027165;28;9336;-65
2023/09/10 04:01:58;;;;;;;;;;;;;;;29.34;41.27;94479.69;5013967;28;7356;-65
2023/09/10 04:04:25;;;;;;;;;;;;;;;29.33;41.05;94483.72;5014034;28;7247;-65
2023/09/10 04:07:09;;;;;;;;;;;;;;;29.33;40.38;94475.41;5020382;28;7277;-65
2023/09/10 04:09:35;;;;;;;;;;;;;;;29.31;40.45;94480.75;5016561;28;7505;-65
2023/09/10 04:12:50;;;;;;;;;;;;;;;29.33;41.58;94472.66;5024923;28;7249;-65
2023/09/10 04:15:29;;;;;;;;;;;;;;;29.30;40.25;94476.47;4973631;28;7250;-65
2023/09/10 04:18:07;;;;;;;;;;;;;;;29.30;40.15;94479.25;4969978;28;7267;-65
2023/09/10 04:20:43;;;;;;;;;;;;;;;29.28;40.94;94473.50;4970705;28;7157;-65
2023/09/10 04:23:12;;;;;;;;;;;;;;;29.28;40.93;94477.03;4970498;28;7609;-65
2023/09/10 04:25:49;;;;;;;;;;;;;;;29.28;40.76;94487.34;4970929;28;7136;-65
2023/09/10 04:28:30;;;;;;;;;;;;;;;29.28;40.84;94490.13;4973789;28;7437;-65
2023/09/10 04:30:56;;;;;;;;;;;;;;;29.27;40.78;94488.63;4970552;28;7243;-65
2023/09/10 04:33:27;;;;;;;;;;;;;;;29.26;40.71;94492.69;4969708;28;7172;-65
2023/09/10 04:36:02;;;;;;;;;;;;;;;29.25;40.44;94491.19;4971640;28;8714;-65
2023/09/10 04:39:09;;;;;;;;;;;;;;;29.23;41.13;94488.22;4970139;28;7620;-65
2023/09/10 04:41:36;;;;;;;;;;;;;;;29.19;41.22;94490.56;4967482;28;7318;-65
2023/09/10 04:44:06;;;;;;;;;;;;;;;29.15;40.99;94496.38;4962782;28;8817;-65
2023/09/10 04:47:04;;;;;;;;;;;;;;;29.14;40.66;94499.69;4970403;28;8158;-65
2023/09/10 04:49:49;;;;;;;;;;;;;;;29.12;40.70;94496.72;4964597;28;7083;-65
2023/09/10 04:52:16;;;;;;;;;;;;;;;29.12;41.71;94497.47;4993967;28;9183;-65
2023/09/10 04:54:48;;;;;;;;;;;;;;;29.08;40.87;94497.00;5017953;28;7167;-65
2023/09/10 04:57:14;;;;;;;;;;;;;;;29.08;41.00;94497.75;5009624;28;6982;-65
2023/09/10 04:59:40;;;;;;;;;;;;;;;29.06;41.17;94505.09;5029740;28;9362;-65
2023/09/10 05:02:06;;;;;;;;;;;;;;;29.07;41.64;94503.84;5032392;28;9212;-65
2023/09/10 05:04:32;;;;;;;;;;;;;;;29.03;40.65;94495.84;5022356;28;8993;-65
2023/09/10 05:06:58;;;;;;;;;;;;;;;29.04;40.74;94505.66;5020465;28;7072;-65
2023/09/10 05:09:25;;;;;;;;;;;;;;;29.03;41.34;94503.41;5031241;28;7447;-65
2023/09/10 05:11:56;;;;;;;;;;;;;;;29.04;40.76;94510.44;5014885;28;8994;-65
2023/09/10 05:14:48;;;;;;;;;;;;;;;29.02;40.88;94505.44;5014356;28;7001;-61
2023/09/10 05:17:14;;;;;;;;;;;;;;;28.99;41.40;94506.47;5015832;28;7271;-61
2023/09/10 05:19:43;;;;;;;;;;;;;;;28.97;41.16;94508.31;5007981;28;7318;-61
2023/09/10 05:22:12;;;;;;;;;;;;;;;28.98;41.78;94505.00;5024803;28;7228;-61
2023/09/10 05:24:41;;;;;;;;;;;;;;;28.99;41.96;94508.53;5024584;28;9160;-61
2023/09/10 05:27:07;;;;;;;;;;;;;;;29.00;41.01;94518.31;5009125;28;8181;-61
2023/09/10 05:29:34;;;;;;;;;;;;;;;28.99;41.40;94514.78;5027505;28;7001;-61
2023/09/10 05:32:20;;;;;;;;;;;;;;;28.98;41.49;94513.31;5026784;28;7486;-61
2023/09/10 05:35:00;;;;;;;;;;;;;;;28.98;41.05;94513.31;5016200;28;7244;-61
2023/09/10 05:37:26;;;;;;;;;;;;;;;28.95;41.64;94511.59;5029220;28;7254;-61
2023/09/10 05:40:07;;;;;;;;;;;;;;;28.94;41.52;94510.13;5025634;28;7224;-61
2023/09/10 05:42:33;;;;;;;;;;;;;;;28.93;41.49;94505.09;5029796;28;7347;-61
2023/09/10 05:45:34;;;;;;;;;;;;;;;28.94;41.69;94510.13;5028360;28;7389;-61
2023/09/10 05:48:01;;;;;;;;;;;;;;;28.94;40.91;94510.13;4987329;28;6986;-61
2023/09/10 05:50:39;;;;;;;;;;;;;;;28.95;42.02;94508.81;4989112;28;6865;-60
2023/09/10 05:53:35;;;;;;;;;;;;;;;28.92;41.77;94515.44;4987964;28;7267;-61
2023/09/10 05:56:36;;;;;;;;;;;;;;;28.92;41.42;94515.44;4971908;28;7297;-61
2023/09/10 05:59:28;;;;;;;;;;;;;;;28.92;41.70;94517.44;4985815;28;6987;-61
2023/09/10 06:02:12;;;;;;;;;;;;;;;28.91;41.21;94519.47;4989396;28;7092;-61
2023/09/10 06:04:42;;;;;;;;;;;;;;;28.91;41.58;94515.94;4989997;28;7399;-61
2023/09/10 06:07:24;;;;;;;;;;;;;;;28.90;41.76;94520.00;4968302;28;6984;-61
2023/09/10 06:09:56;;;;;;;;;;;;;;;28.87;41.79;94521.81;4986497;28;9430;-61
2023/09/10 06:12:40;;;;;;;;;;;;;;;28.87;41.68;94524.56;4991673;28;7640;-61
2023/09/10 06:15:10;;;;;;;;;;;;;;;28.87;41.40;94524.56;4975024;28;9055;-61
2023/09/10 06:17:53;;;;;;;;;;;;;;;28.85;41.92;94518.06;4973742;28;8871;-61
2023/09/10 06:20:31;;;;;;;;;;;;;;;28.84;41.97;94517.31;4992578;28;7269;-61
2023/09/10 06:23:18;;;;;;;;;;;;;;;28.87;42.06;94530.13;4994472;28;7244;-61
2023/09/10 06:25:54;;;;;;;;;;;;;;;28.86;41.99;94525.84;4988413;28;7241;-55
2023/09/10 06:28:36;;;;;;;;;;;;;;;28.88;42.46;94523.28;4986877;28;7096;-56
2023/09/10 06:31:38;;;;;;;;;;;;;;;28.86;42.60;94523.06;4989768;28;7020;-56
2023/09/10 06:34:16;;;;;;;;;;;;;;;28.84;41.78;94522.84;4969276;28;7003;-56
2023/09/10 06:36:44;;;;;;;;;;;;;;;28.80;42.86;94522.44;4969948;28;6979;-56
2023/09/10 06:39:50;;;;;;;;;;;;;;;28.84;42.75;94522.84;4957603;28;7217;-55
2023/09/10 06:43:06;;;;;;;;;;;;;;;28.84;43.27;94516.59;4970792;28;7250;-56
2023/09/10 06:45:38;;;;;;;;;;;;;;;28.84;42.59;94522.84;4919191;29;7244;-56
2023/09/10 06:48:16;;;;;;;;;;;;;;;28.85;42.78;94529.91;4910177;29;7231;-56
2023/09/10 06:51:00;;;;;;;;;;;;;;;28.87;42.79;94530.13;4917994;29;7246;-56
2023/09/10 06:54:01;;;;;;;;;;;;;;;28.89;42.63;94530.31;4919416;29;7101;-55
2023/09/10 06:56:39;;;;;;;;;;;;;;;28.91;43.35;94538.84;4859620;29;7457;-56
2023/09/10 06:59:32;;;;;;;;;;;;;;;28.92;42.74;94537.59;4858535;29;9082;-56
2023/09/10 07:02:16;;;;;;;;;;;;;;;28.88;43.66;94530.88;4863678;29;9958;-56
2023/09/10 07:04:57;;;;;;;;;;;;;;;28.89;43.54;94540.66;4860853;29;7337;-56
2023/09/10 07:07:38;;;;;;;;;;;;;;;28.90;43.63;94542.16;4857686;29;7565;-55
2023/09/10 07:10:11;;;;;;;;;;;;;;;28.94;42.97;94546.13;4868617;29;7014;-55
2023/09/10 07:12:37;;;;;;;;;;;;;;;28.92;43.95;94550.69;4876586;29;7238;-56
2023/09/10 07:15:24;;;;;;;;;;;;;;;28.94;44.00;94550.91;4876622;29;7309;-56
2023/09/10 07:17:54;;;;;;;;;;;;;;;28.97;43.64;94553.34;4878616;29;7013;-56
2023/09/10 07:20:50;;;;;;;;;;;;;;;28.97;43.86;94556.13;4879745;29;7257;-56
2023/09/10 07:23:27;;;;;;;;;;;;;;;29.00;44.45;94548.78;4840079;29;9072;-56
2023/09/10 07:26:06;;;;;;;;;;;;;;;29.00;44.52;94548.78;4858280;29;7416;-56
2023/09/10 07:28:47;;;;;;;;;;;;;;;29.00;44.45;94548.78;4847619;29;7261;-56
2023/09/10 07:31:14;;;;;;;;;;;;;;;29.01;44.83;94558.59;4865625;29;9169;-56
2023/09/10 07:33:51;;;;;;;;;;;;;;;28.98;44.61;94552.09;4927918;29;6986;-56
2023/09/10 07:36:17;;;;;;;;;;;;;;;29.03;44.39;94561.56;4926275;29;7042;-60
2023/09/10 07:38:44;;;;;;;;;;;;;;;29.03;44.96;94559.56;4930829;29;7181;-60
2023/09/10 07:41:10;;;;;;;;;;;;;;;29.02;45.27;94560.81;4915793;29;7241;-60
2023/09/10 07:43:38;;;;;;;;;;;;;;;29.03;44.83;94558.81;4924197;28;7133;-61
2023/09/10 07:46:14;;;;;;;;;;;;;;;29.06;44.92;94555.72;4931089;29;9495;-61
2023/09/10 07:48:50;;;;;;;;;;;;;;;29.06;44.23;94554.97;4914564;29;9329;-60
2023/09/10 07:51:16;;;;;;;;;;;;;;;29.03;45.24;94554.00;4920045;29;8288;-60
2023/09/10 07:53:45;;;;;;;;;;;;;;;29.10;45.07;94547.09;4917679;29;7275;-60
2023/09/10 07:56:12;;;;;;;;;;;;;;;29.07;44.80;94556.47;4923398;29;7873;-60
2023/09/10 07:58:39;;;;;;;;;;;;;;;29.07;45.33;94564.78;4920769;28;7083;-60
2023/09/10 08:01:07;;;;;;;;;;;;;;;29.06;45.59;94561.25;5010014;28;7354;-60
2023/09/10 08:03:36;;;;;;;;;;;;;;;29.12;44.66;94560.41;5012711;28;7061;-60
2023/09/10 08:06:03;;;;;;;;;;;;;;;29.13;45.63;94556.34;5011596;28;8162;-60
2023/09/10 08:08:30;;;;;;;;;;;;;;;29.15;46.18;94559.34;5005374;28;9048;-60
2023/09/10 08:10:59;;;;;;;;;;;;;;;29.11;45.97;94556.88;5023890;28;9511;-59
2023/09/10 08:13:25;;;;;;;;;;;;;;;29.17;45.80;94554.06;5011210;28;6957;-60
2023/09/10 08:15:51;;;;;;;;;;;;;;;29.15;45.42;94556.56;5029618;28;7330;-60
2023/09/10 08:18:17;;;;;;;;;;;;;;;29.15;44.94;94551.03;5008233;28;7375;-60
2023/09/10 08:20:45;;;;;;;;;;;;;;;29.17;45.38;94554.78;5023875;28;8190;-59
2023/09/10 08:23:13;;;;;;;;;;;;;;;29.17;46.00;94559.59;5009284;28;9280;-59
2023/09/10 08:25:39;;;;;;;;;;;;;;;29.16;45.98;94558.84;5008185;28;9453;-60
2023/09/10 08:28:05;;;;;;;;;;;;;;;29.18;46.11;94555.53;5016034;28;6995;-60
2023/09/10 08:30:31;;;;;;;;;;;;;;;29.20;46.92;94555.75;5007546;28;6980;-60
2023/09/10 08:32:57;;;;;;;;;;;;;;;29.26;45.99;94561.94;5024656;28;7277;-60
2023/09/10 08:35:28;;;;;;;;;;;;;;;29.22;45.62;94550.44;5024912;28;8509;-60
2023/09/10 08:37:56;;;;;;;;;;;;;;;29.26;46.42;94561.94;5007647;28;7306;-60
2023/09/10 08:40:24;;;;;;;;;;;;;;;29.25;46.86;94563.97;5026082;28;8756;-60
2023/09/10 08:43:14;;;;;;;;;;;;;;;29.23;46.44;94557.47;5020549;28;7198;-60
2023/09/10 08:45:44;;;;;;;;;;;;;;;29.21;46.00;94566.28;5019016;28;9158;-65
2023/09/10 08:48:17;;;;;;;;;;;;;;;29.21;46.75;94558.00;5002105;28;9203;-65
2023/09/10 08:50:53;;;;;;;;;;;;;;;29.21;46.43;94571.13;5007632;28;7084;-65
2023/09/10 08:53:20;;;;;;;;;;;;;;;29.17;45.99;94554.78;5006441;28;9320;-65
2023/09/10 08:55:48;;;;;;;;;;;;;;;29.13;46.79;94559.88;4995625;28;8468;-64
2023/09/10 08:58:16;;;;;;;;;;;;;;;29.12;46.38;94563.19;5013859;28;9267;-64
2023/09/10 09:00:44;;;;;;;;;;;;;;;29.07;46.61;94565.53;5010232;28;8768;-64
2023/09/10 09:03:11;;;;;;;;;;;;;;;29.05;46.16;94568.06;5024982;28;6989;-64
2023/09/10 09:05:39;;;;;;;;;;;;;;;29.04;46.72;94563.03;5020127;28;7389;-65
2023/09/10 09:08:17;;;;;;;;;;;;;;;29.03;46.39;94554.00;5010417;28;7038;-65
2023/09/10 09:10:44;;;;;;;;;;;;;;;29.05;45.94;94553.47;5024229;28;8438;-64
2023/09/10 09:13:13;;;;;;;;;;;;;;;29.04;46.20;94561.03;5020967;28;9087;-64
2023/09/10 09:15:42;;;;;;;;;;;;;;;29.04;46.93;94561.03;5016628;28;8942;-64
2023/09/10 09:18:16;;;;;;;;;;;;;;;29.05;47.86;94559.78;4997932;28;7097;-64
2023/09/10 09:20:53;;;;;;;;;;;;;;;29.05;47.50;94559.78;5008532;28;7279;-65
2023/09/10 09:23:38;;;;;;;;;;;;;;;29.08;48.20;94557.94;5009907;28;8822;-64
2023/09/10 09:26:08;;;;;;;;;;;;;;;29.08;48.29;94563.47;5018923;28;9132;-64
2023/09/10 09:28:35;;;;;;;;;;;;;;;29.10;48.21;94561.69;5008040;28;8774;-65
2023/09/10 09:31:02;;;;;;;;;;;;;;;29.14;48.41;94566.16;5021623;28;7079;-64
2023/09/10 09:33:29;;;;;;;;;;;;;;;29.10;48.38;94558.91;5022560;28;9263;-64
2023/09/10 09:36:05;;;;;;;;;;;;;;;29.17;46.93;94567.91;5008063;28;7207;-64
2023/09/10 09:38:31;;;;;;;;;;;;;;;29.17;47.62;94556.84;5018371;28;7654;-64
2023/09/10 09:40:57;;;;;;;;;;;;;;;29.18;47.78;94555.53;5006311;28;8679;-65
2023/09/10 09:43:32;;;;;;;;;;;;;;;29.19;47.76;94562.59;5010693;28;7227;-65
2023/09/10 09:46:01;;;;;;;;;;;;;;;29.18;47.61;94555.53;5015976;28;7081;-64
2023/09/10 09:48:28;;;;;;;;;;;;;;;29.17;47.65;94548.53;5010133;28;7274;-65
2023/09/10 09:50:55;;;;;;;;;;;;;;;29.19;47.40;94551.50;5012326;28;8491;-64
2023/09/10 09:53:30;;;;;;;;;;;;;;;29.15;47.88;94551.03;5027585;28;9390;-64
2023/09/10 09:56:02;;;;;;;;;;;;;;;29.12;48.10;94552.84;5015193;28;9223;-61
2023/09/10 09:58:29;;;;;;;;;;;;;;;29.12;47.96;94546.56;5029129;28;7138;-61
2023/09/10 10:00:59;;;;;;;;;;;;;;;29.14;47.92;94550.31;5020063;28;7272;-61
2023/09/10 10:03:28;;;;;;;;;;;;;;;29.09;47.54;94542.81;5028175;28;7228;-61
2023/09/10 10:05:58;;;;;;;;;;;;;;;29.11;47.84;94540.28;5009314;28;7174;-61
2023/09/10 10:08:33;;;;;;;;;;;;;;;29.09;48.69;94542.81;5013235;28;6935;-61
2023/09/10 10:11:03;;;;;;;;;;;;;;;29.08;48.25;94531.00;5016291;28;7452;-61
2023/09/10 10:13:31;;;;;;;;;;;;;;;29.16;47.75;94538.69;5003913;28;9393;-61
2023/09/10 10:15:57;;;;;;;;;;;;;;;29.15;47.32;94528.88;5007279;28;7002;-61
2023/09/10 10:18:27;;;;;;;;;;;;;;;29.14;48.30;94532.94;5024352;28;7213;-61
2023/09/10 10:20:55;;;;;;;;;;;;;;;29.15;47.60;94526.09;5017584;28;7311;-61
2023/09/10 10:23:28;;;;;;;;;;;;;;;29.14;47.62;94525.38;5015127;28;7001;-61
2023/09/10 10:26:06;;;;;;;;;;;;;;;29.18;48.09;94522.31;5010839;28;7247;-61
2023/09/10 10:28:49;;;;;;;;;;;;;;;29.22;47.72;94520.72;5020389;28;9128;-62
2023/09/10 10:31:51;;;;;;;;;;;;;;;29.23;47.13;94518.69;5026553;28;7216;-61
2023/09/10 10:34:30;;;;;;;;;;;;;;;29.23;48.11;94513.16;5009507;28;7436;-61
2023/09/10 10:37:34;;;;;;;;;;;;;;;29.24;47.49;94514.63;5012135;28;9056;-61
2023/09/10 10:40:19;;;;;;;;;;;;;;;29.23;47.63;94515.94;5013406;28;7198;-62
2023/09/10 10:43:03;;;;;;;;;;;;;;;29.24;47.82;94511.84;5010909;28;8034;-62
2023/09/10 10:45:33;;;;;;;;;;;;;;;29.28;47.71;94510.25;5026666;28;8789;-61
2023/09/10 10:48:14;;;;;;;;;;;;;;;29.32;47.47;94512.72;5010545;28;7514;-61
2023/09/10 10:50:46;;;;;;;;;;;;;;;29.36;46.60;94510.38;5029359;28;7097;-62
2023/09/10 10:53:24;;;;;;;;;;;;;;;29.40;47.72;94508.03;5010145;28;7200;-62
2023/09/10 10:55:56;;;;;;;;;;;;;;;29.39;46.84;94501.75;5017507;28;7091;-61
2023/09/10 10:58:24;;;;;;;;;;;;;;;29.42;47.43;94506.22;5020974;28;8716;-61
2023/09/10 11:00:53;;;;;;;;;;;;;;;29.46;46.64;94500.34;5010053;28;7348;-61
2023/09/10 11:03:24;;;;;;;;;;;;;;;29.44;46.55;94495.34;5025644;28;7287;-62
2023/09/10 11:05:58;;;;;;;;;;;;;;;29.47;46.60;94502.56;5040371;28;7424;-57
2023/09/10 11:08:23;;;;;;;;;;;;;;;29.54;47.54;94507.47;5028656;28;7063;-57
2023/09/10 11:10:49;;;;;;;;;;;;;;;29.54;46.64;94499.16;5025289;28;6989;-57
2023/09/10 11:13:18;;;;;;;;;;;;;;;29.56;46.14;94498.63;5013773;28;7203;-57
2023/09/10 11:16:05;;;;;;;;;;;;;;;29.54;47.08;94496.41;5018961;28;9203;-58
2023/09/10 11:18:36;;;;;;;;;;;;;;;29.59;47.31;94497.56;4967837;28;7078;-57
2023/09/10 11:21:09;;;;;;;;;;;;;;;29.63;46.93;94493.19;4972135;28;7338;-57
2023/09/10 11:23:46;;;;;;;;;;;;;;;29.69;47.50;94493.06;4953409;28;7238;-57
2023/09/10 11:26:14;;;;;;;;;;;;;;;29.69;47.32;94490.28;4976687;28;7234;-57
2023/09/10 11:28:59;;;;;;;;;;;;;;;29.70;46.95;94492.53;4969497;28;7276;-57
2023/09/10 11:31:38;;;;;;;;;;;;;;;29.73;47.08;94488.69;4946393;28;7341;-58
2023/09/10 11:34:23;;;;;;;;;;;;;;;29.77;47.27;94482.88;4957561;28;7192;-57
2023/09/10 11:36:59;;;;;;;;;;;;;;;29.80;46.59;94479.75;4962960;28;6988;-56
2023/09/10 11:39:32;;;;;;;;;;;;;;;29.78;47.69;94482.31;4968724;28;8961;-57
2023/09/10 11:42:04;;;;;;;;;;;;;;;29.77;47.59;94482.88;4962810;28;7224;-58
2023/09/10 11:44:30;;;;;;;;;;;;;;;29.78;47.30;94481.56;4953678;28;9355;-57
2023/09/10 11:46:58;;;;;;;;;;;;;;;29.82;46.93;94481.25;4962894;28;9443;-58
2023/09/10 11:49:38;;;;;;;;;;;;;;;29.83;46.97;94479.97;4968969;28;7441;-57
2023/09/10 11:52:14;;;;;;;;;;;;;;;29.82;46.20;94476.44;4962122;28;9139;-57
2023/09/10 11:54:41;;;;;;;;;;;;;;;29.89;46.14;94472.25;4971883;28;8784;-57
2023/09/10 11:57:28;;;;;;;;;;;;;;;30.01;46.77;94474.28;5013405;28;9391;-57
2023/09/10 12:00:19;;;;;;;;;;;;;;;30.09;46.67;94472.31;5009923;28;7258;-58
2023/09/10 12:02:55;;;;;;;;;;;;;;;30.13;46.20;94466.41;5025586;28;8188;-57
2023/09/10 12:05:31;;;;;;;;;;;;;;;30.08;45.78;94468.03;5004238;28;7235;-57
2023/09/10 12:08:01;;;;;;;;;;;;;;;30.05;45.39;94469.13;5008995;28;7323;-57
2023/09/10 12:10:45;;;;;;;;;;;;;;;30.03;46.50;94460.59;5010933;28;7214;-57
2023/09/10 12:13:23;;;;;;;;;;;;;;;30.02;46.73;94467.41;5017652;28;9122;-57
2023/09/10 12:15:52;;;;;;;;;;;;;;;30.00;45.96;94460.91;5009821;28;6982;-63
2023/09/10 12:18:21;;;;;;;;;;;;;;;30.00;46.08;94460.91;5014856;28;8912;-63
2023/09/10 12:21:01;;;;;;;;;;;;;;;29.98;46.47;94453.16;5006951;28;7259;-64
2023/09/10 12:23:35;;;;;;;;;;;;;;;29.97;45.40;94456.47;5010944;28;7667;-63
2023/09/10 12:26:13;;;;;;;;;;;;;;;29.95;45.71;94459.75;5029953;28;7198;-63
2023/09/10 12:28:51;;;;;;;;;;;;;;;29.95;45.99;94456.25;5018799;28;7230;-62
2023/09/10 12:32:14;;;;;;;;;;;;;;;29.92;45.07;94455.31;5018319;28;7027;-63
2023/09/10 12:35:13;;;;;;;;;;;;;;;29.88;45.14;94460.44;4982609;28;7310;-62
2023/09/10 12:37:49;;;;;;;;;;;;;;;29.88;46.30;94451.38;4970064;28;7232;-62
2023/09/10 12:40:28;;;;;;;;;;;;;;;29.87;46.37;94453.38;4955822;28;7327;-62
2023/09/10 12:42:54;;;;;;;;;;;;;;;29.87;46.13;94453.38;4966858;28;7086;-63
2023/09/10 12:45:22;;;;;;;;;;;;;;;29.87;46.33;94447.84;4969102;28;8840;-62
2023/09/10 12:47:57;;;;;;;;;;;;;;;29.86;46.88;94449.13;4955899;28;9222;-63
2023/09/10 12:50:32;;;;;;;;;;;;;;;29.89;45.68;94448.06;4951306;28;9151;-62
2023/09/10 12:53:05;;;;;;;;;;;;;;;29.91;46.15;94442.72;4952365;28;7030;-62
2023/09/10 12:55:32;;;;;;;;;;;;;;;29.93;46.51;94451.22;4947248;28;9156;-62
2023/09/10 12:58:13;;;;;;;;;;;;;;;29.94;45.74;94449.97;4967237;28;6876;-62
2023/09/10 13:00:40;;;;;;;;;;;;;;;29.95;45.71;94439.63;4960404;28;7274;-62
2023/09/10 13:03:26;;;;;;;;;;;;;;;29.96;46.50;94438.31;4949640;28;7108;-62
2023/09/10 13:05:54;;;;;;;;;;;;;;;29.99;45.57;94432.47;4986962;28;9001;-62
2023/09/10 13:08:24;;;;;;;;;;;;;;;29.97;45.38;94423.19;4999361;28;7151;-62
2023/09/10 13:10:54;;;;;;;;;;;;;;;29.99;46.89;94429.69;5015558;28;9191;-62
2023/09/10 13:13:38;;;;;;;;;;;;;;;29.98;46.10;94421.88;4994898;28;7942;-62
2023/09/10 13:16:34;;;;;;;;;;;;;;;30.00;45.70;94422.84;5005613;28;7506;-62
2023/09/10 13:19:00;;;;;;;;;;;;;;;30.00;45.98;94422.09;4989790;28;8083;-62
2023/09/10 13:21:36;;;;;;;;;;;;;;;30.02;46.01;94411.94;4987872;28;7230;-62
2023/09/10 13:24:31;;;;;;;;;;;;;;;30.05;45.79;94419.19;4990099;28;7287;-62
2023/09/10 13:27:31;;;;;;;;;;;;;;;30.08;45.57;94420.88;4932866;28;7247;-61
2023/09/10 13:30:16;;;;;;;;;;;;;;;30.10;45.92;94412.75;4945774;28;9089;-60
2023/09/10 13:33:05;;;;;;;;;;;;;;;30.12;45.01;94415.75;4934772;28;7171;-61
2023/09/10 13:35:32;;;;;;;;;;;;;;;30.11;45.10;94411.47;4952733;28;8960;-61
2023/09/10 13:38:01;;;;;;;;;;;;;;;30.15;45.02;94417.44;4952661;28;7066;-60
2023/09/10 13:40:41;;;;;;;;;;;;;;;30.14;44.88;94420.75;4936398;28;7358;-61
2023/09/10 13:43:38;;;;;;;;;;;;;;;30.12;46.02;94421.31;4949659;28;7068;-61
2023/09/10 13:46:21;;;;;;;;;;;;;;;30.12;45.48;94424.09;4876923;29;7267;-61